sensor_id;sensor_type;location;lat;lon;timestamp;temperature;humidity
11704;DHT22;5908;51.354;7.458;2023-05-07T00:02:15;15.10;99.90
11704;DHT22;5908;51.354;7.458;2023-05-07T00:04:41;15.10;99.90
11704;DHT22;5908;51.354;7.458;2023-05-07T00:07:10;15.10;99.90
11704;DHT22;5908;51.354;7.458;2023-05-07T00:09:37;15.10;99.90
11704;DHT22;5908;51.354;7.458;2023-05-07T00:12:04;15.10;99.90
11704;DHT22;5908;51.354;7.458;2023-05-07T00:14:31;15.10;99.90
11704;DHT22;5908;51.354;7.458;2023-05-07T00:16:57;15.10;99.90
11704;DHT22;5908;51.354;7.458;2023-05-07T00:19:24;15.10;99.90
11704;DHT22;5908;51.354;7.458;2023-05-07T00:21:51;15.20;99.90
11704;DHT22;5908;51.354;7.458;2023-05-07T00:24:20;15.20;99.90
11704;DHT22;5908;51.354;7.458;2023-05-07T00:26:47;15.20;99.90
11704;DHT22;5908;51.354;7.458;2023-05-07T00:29:13;15.20;99.90
11704;DHT22;5908;51.354;7.458;2023-05-07T00:31:40;15.20;99.90
11704;DHT22;5908;51.354;7.458;2023-05-07T00:34:07;15.20;99.90
11704;DHT22;5908;51.354;7.458;2023-05-07T00:36:33;15.20;99.90
11704;DHT22;5908;51.354;7.458;2023-05-07T00:39:01;15.20;99.90
11704;DHT22;5908;51.354;7.458;2023-05-07T00:41:30;15.20;99.90
11704;DHT22;5908;51.354;7.458;2023-05-07T00:43:57;15.20;99.90
11704;DHT22;5908;51.354;7.458;2023-05-07T00:46:24;15.20;99.90
11704;DHT22;5908;51.354;7.458;2023-05-07T00:48:51;15.20;99.90
11704;DHT22;5908;51.354;7.458;2023-05-07T00:51:18;15.20;99.90
11704;DHT22;5908;51.354;7.458;2023-05-07T00:53:45;15.20;99.90
11704;DHT22;5908;51.354;7.458;2023-05-07T00:56:12;15.20;99.90
11704;DHT22;5908;51.354;7.458;2023-05-07T00:58:40;15.10;99.90
11704;DHT22;5908;51.354;7.458;2023-05-07T01:01:07;15.10;99.90
11704;DHT22;5908;51.354;7.458;2023-05-07T01:03:34;15.10;99.90
11704;DHT22;5908;51.354;7.458;2023-05-07T01:12:46;15.10;99.90
11704;DHT22;5908;51.354;7.458;2023-05-07T01:15:16;15.00;99.90
11704;DHT22;5908;51.354;7.458;2023-05-07T01:17:44;15.10;99.90
11704;DHT22;5908;51.354;7.458;2023-05-07T01:20:11;15.10;99.90
11704;DHT22;5908;51.354;7.458;2023-05-07T01:22:40;15.10;99.90
11704;DHT22;5908;51.354;7.458;2023-05-07T01:25:09;15.10;99.90
11704;DHT22;5908;51.354;7.458;2023-05-07T01:27:36;15.10;99.90
11704;DHT22;5908;51.354;7.458;2023-05-07T01:30:03;15.00;99.90
11704;DHT22;5908;51.354;7.458;2023-05-07T01:32:35;15.00;99.90
11704;DHT22;5908;51.354;7.458;2023-05-07T01:35:07;15.00;99.90
11704;DHT22;5908;51.354;7.458;2023-05-07T01:37:36;15.00;99.90
11704;DHT22;5908;51.354;7.458;2023-05-07T01:40:06;15.00;99.90
11704;DHT22;5908;51.354;7.458;2023-05-07T01:42:33;15.00;99.90
11704;DHT22;5908;51.354;7.458;2023-05-07T01:45:00;14.90;99.90
11704;DHT22;5908;51.354;7.458;2023-05-07T01:47:28;14.90;99.90
11704;DHT22;5908;51.354;7.458;2023-05-07T01:49:55;14.90;99.90
11704;DHT22;5908;51.354;7.458;2023-05-07T01:52:22;14.80;99.90
11704;DHT22;5908;51.354;7.458;2023-05-07T01:54:50;14.80;99.90
11704;DHT22;5908;51.354;7.458;2023-05-07T01:57:18;14.80;99.90
11704;DHT22;5908;51.354;7.458;2023-05-07T01:59:45;14.70;99.90
11704;DHT22;5908;51.354;7.458;2023-05-07T02:02:12;14.70;99.90
11704;DHT22;5908;51.354;7.458;2023-05-07T02:04:39;14.60;99.90
11704;DHT22;5908;51.354;7.458;2023-05-07T02:07:06;14.50;99.90
11704;DHT22;5908;51.354;7.458;2023-05-07T02:09:32;14.40;99.90
11704;DHT22;5908;51.354;7.458;2023-05-07T02:11:59;14.30;99.90
11704;DHT22;5908;51.354;7.458;2023-05-07T02:14:28;14.20;99.90
11704;DHT22;5908;51.354;7.458;2023-05-07T02:16:55;14.10;99.90
11704;DHT22;5908;51.354;7.458;2023-05-07T02:19:21;14.00;99.90
11704;DHT22;5908;51.354;7.458;2023-05-07T02:21:48;13.90;99.90
11704;DHT22;5908;51.354;7.458;2023-05-07T02:24:15;13.90;99.90
11704;DHT22;5908;51.354;7.458;2023-05-07T02:26:42;13.90;99.90
11704;DHT22;5908;51.354;7.458;2023-05-07T02:29:09;13.90;99.90
11704;DHT22;5908;51.354;7.458;2023-05-07T02:31:37;13.90;99.90
11704;DHT22;5908;51.354;7.458;2023-05-07T02:34:04;13.90;99.90
11704;DHT22;5908;51.354;7.458;2023-05-07T02:36:31;13.90;99.90
11704;DHT22;5908;51.354;7.458;2023-05-07T02:38:57;13.90;99.90
11704;DHT22;5908;51.354;7.458;2023-05-07T02:41:24;13.80;99.90
11704;DHT22;5908;51.354;7.458;2023-05-07T02:43:51;13.80;99.90
11704;DHT22;5908;51.354;7.458;2023-05-07T02:46:18;13.80;99.90
11704;DHT22;5908;51.354;7.458;2023-05-07T02:48:46;13.80;99.90
11704;DHT22;5908;51.354;7.458;2023-05-07T02:51:13;13.80;99.90
11704;DHT22;5908;51.354;7.458;2023-05-07T02:53:39;13.80;99.90
11704;DHT22;5908;51.354;7.458;2023-05-07T02:56:06;13.80;99.90
11704;DHT22;5908;51.354;7.458;2023-05-07T02:58:33;13.80;99.90
11704;DHT22;5908;51.354;7.458;2023-05-07T03:01:00;13.70;99.90
11704;DHT22;5908;51.354;7.458;2023-05-07T03:03:27;13.70;99.90
11704;DHT22;5908;51.354;7.458;2023-05-07T03:05:55;13.70;99.90
11704;DHT22;5908;51.354;7.458;2023-05-07T03:08:22;13.60;99.90
11704;DHT22;5908;51.354;7.458;2023-05-07T03:10:48;13.60;99.90
11704;DHT22;5908;51.354;7.458;2023-05-07T03:13:15;13.50;99.90
11704;DHT22;5908;51.354;7.458;2023-05-07T03:15:42;13.50;99.90
11704;DHT22;5908;51.354;7.458;2023-05-07T03:18:09;13.40;99.90
11704;DHT22;5908;51.354;7.458;2023-05-07T03:20:35;13.40;99.90
11704;DHT22;5908;51.354;7.458;2023-05-07T03:23:04;13.40;99.90
11704;DHT22;5908;51.354;7.458;2023-05-07T03:25:31;13.50;99.90
11704;DHT22;5908;51.354;7.458;2023-05-07T03:27:59;13.60;99.90
11704;DHT22;5908;51.354;7.458;2023-05-07T03:30:25;13.70;99.90
11704;DHT22;5908;51.354;7.458;2023-05-07T03:32:52;13.70;99.90
11704;DHT22;5908;51.354;7.458;2023-05-07T03:35:19;13.70;99.90
11704;DHT22;5908;51.354;7.458;2023-05-07T03:37:46;13.70;99.90
11704;DHT22;5908;51.354;7.458;2023-05-07T03:40:14;13.70;99.90
11704;DHT22;5908;51.354;7.458;2023-05-07T03:42:41;13.70;99.90
11704;DHT22;5908;51.354;7.458;2023-05-07T03:45:08;13.70;99.90
11704;DHT22;5908;51.354;7.458;2023-05-07T03:47:35;13.80;99.90
11704;DHT22;5908;51.354;7.458;2023-05-07T03:50:02;13.80;99.90
11704;DHT22;5908;51.354;7.458;2023-05-07T03:52:29;13.80;99.90
11704;DHT22;5908;51.354;7.458;2023-05-07T03:54:56;13.80;99.90
11704;DHT22;5908;51.354;7.458;2023-05-07T03:57:24;13.80;99.90
11704;DHT22;5908;51.354;7.458;2023-05-07T03:59:51;13.90;99.90
11704;DHT22;5908;51.354;7.458;2023-05-07T04:02:17;13.90;99.90
11704;DHT22;5908;51.354;7.458;2023-05-07T04:04:44;13.90;99.90
11704;DHT22;5908;51.354;7.458;2023-05-07T04:07:11;13.90;99.90
11704;DHT22;5908;51.354;7.458;2023-05-07T04:09:37;14.00;99.90
11704;DHT22;5908;51.354;7.458;2023-05-07T04:12:04;13.90;99.90
11704;DHT22;5908;51.354;7.458;2023-05-07T04:14:32;13.90;99.90
11704;DHT22;5908;51.354;7.458;2023-05-07T04:16:59;13.90;99.90
11704;DHT22;5908;51.354;7.458;2023-05-07T04:19:26;14.00;99.90
11704;DHT22;5908;51.354;7.458;2023-05-07T04:21:52;14.00;99.90
11704;DHT22;5908;51.354;7.458;2023-05-07T04:24:19;14.10;99.90
11704;DHT22;5908;51.354;7.458;2023-05-07T04:26:46;14.10;99.90
11704;DHT22;5908;51.354;7.458;2023-05-07T04:29:12;14.20;99.90
11704;DHT22;5908;51.354;7.458;2023-05-07T04:31:41;14.20;99.90
11704;DHT22;5908;51.354;7.458;2023-05-07T04:34:09;14.20;99.90
11704;DHT22;5908;51.354;7.458;2023-05-07T04:36:37;14.30;99.90
11704;DHT22;5908;51.354;7.458;2023-05-07T04:39:04;14.30;99.90
11704;DHT22;5908;51.354;7.458;2023-05-07T04:41:30;14.30;99.90
11704;DHT22;5908;51.354;7.458;2023-05-07T04:43:57;14.40;99.90
11704;DHT22;5908;51.354;7.458;2023-05-07T04:46:24;14.40;99.90
11704;DHT22;5908;51.354;7.458;2023-05-07T04:48:52;14.50;99.90
11704;DHT22;5908;51.354;7.458;2023-05-07T04:51:19;14.60;99.90
11704;DHT22;5908;51.354;7.458;2023-05-07T04:53:46;14.70;99.90
11704;DHT22;5908;51.354;7.458;2023-05-07T04:56:12;14.80;99.90
11704;DHT22;5908;51.354;7.458;2023-05-07T04:58:39;15.00;99.90
11704;DHT22;5908;51.354;7.458;2023-05-07T05:01:06;15.10;99.90
11704;DHT22;5908;51.354;7.458;2023-05-07T05:03:32;15.20;99.90
11704;DHT22;5908;51.354;7.458;2023-05-07T05:06:00;15.40;99.90
11704;DHT22;5908;51.354;7.458;2023-05-07T05:08:27;15.60;99.90
11704;DHT22;5908;51.354;7.458;2023-05-07T05:10:56;15.80;99.90
11704;DHT22;5908;51.354;7.458;2023-05-07T05:13:22;16.00;99.90
11704;DHT22;5908;51.354;7.458;2023-05-07T05:15:49;16.20;99.90
11704;DHT22;5908;51.354;7.458;2023-05-07T05:18:16;16.30;99.90
11704;DHT22;5908;51.354;7.458;2023-05-07T05:20:43;16.40;99.90
11704;DHT22;5908;51.354;7.458;2023-05-07T05:23:11;16.50;99.90
11704;DHT22;5908;51.354;7.458;2023-05-07T05:25:38;16.60;99.90
11704;DHT22;5908;51.354;7.458;2023-05-07T05:28:05;16.50;99.90
11704;DHT22;5908;51.354;7.458;2023-05-07T05:30:32;16.50;99.90
11704;DHT22;5908;51.354;7.458;2023-05-07T05:32:59;16.50;99.90
11704;DHT22;5908;51.354;7.458;2023-05-07T05:35:26;16.40;99.90
11704;DHT22;5908;51.354;7.458;2023-05-07T05:37:52;16.40;99.90
11704;DHT22;5908;51.354;7.458;2023-05-07T05:40:20;16.40;99.90
11704;DHT22;5908;51.354;7.458;2023-05-07T05:42:47;16.50;99.90
11704;DHT22;5908;51.354;7.458;2023-05-07T05:45:14;16.70;99.90
11704;DHT22;5908;51.354;7.458;2023-05-07T05:47:41;16.80;99.90
11704;DHT22;5908;51.354;7.458;2023-05-07T05:50:08;17.00;99.90
11704;DHT22;5908;51.354;7.458;2023-05-07T05:52:34;17.20;99.90
11704;DHT22;5908;51.354;7.458;2023-05-07T05:55:01;17.30;99.90
11704;DHT22;5908;51.354;7.458;2023-05-07T05:57:29;17.40;99.90
11704;DHT22;5908;51.354;7.458;2023-05-07T05:59:56;17.40;99.90
11704;DHT22;5908;51.354;7.458;2023-05-07T06:02:23;17.30;99.90
11704;DHT22;5908;51.354;7.458;2023-05-07T06:04:49;17.40;99.90
11704;DHT22;5908;51.354;7.458;2023-05-07T06:07:16;17.50;99.90
11704;DHT22;5908;51.354;7.458;2023-05-07T06:09:43;17.50;99.90
11704;DHT22;5908;51.354;7.458;2023-05-07T06:12:09;17.60;99.90
11704;DHT22;5908;51.354;7.458;2023-05-07T06:14:37;17.70;99.90
11704;DHT22;5908;51.354;7.458;2023-05-07T06:17:04;17.80;99.90
11704;DHT22;5908;51.354;7.458;2023-05-07T06:19:31;18.00;99.90
11704;DHT22;5908;51.354;7.458;2023-05-07T06:21:57;18.10;99.90
11704;DHT22;5908;51.354;7.458;2023-05-07T06:24:26;18.30;99.90
11704;DHT22;5908;51.354;7.458;2023-05-07T06:26:53;18.40;99.90
11704;DHT22;5908;51.354;7.458;2023-05-07T06:29:20;18.60;99.90
11704;DHT22;5908;51.354;7.458;2023-05-07T06:31:48;18.80;99.90
11704;DHT22;5908;51.354;7.458;2023-05-07T06:34:15;19.10;99.90
11704;DHT22;5908;51.354;7.458;2023-05-07T06:36:41;19.20;99.90
11704;DHT22;5908;51.354;7.458;2023-05-07T06:39:08;19.20;99.90
11704;DHT22;5908;51.354;7.458;2023-05-07T06:41:35;19.30;99.90
11704;DHT22;5908;51.354;7.458;2023-05-07T06:44:02;19.40;99.90
11704;DHT22;5908;51.354;7.458;2023-05-07T06:46:28;19.40;99.90
11704;DHT22;5908;51.354;7.458;2023-05-07T06:48:57;19.40;99.90
11704;DHT22;5908;51.354;7.458;2023-05-07T06:51:23;19.40;99.90
11704;DHT22;5908;51.354;7.458;2023-05-07T06:53:50;19.40;99.90
11704;DHT22;5908;51.354;7.458;2023-05-07T06:56:17;19.50;99.90
11704;DHT22;5908;51.354;7.458;2023-05-07T06:58:44;19.60;99.90
11704;DHT22;5908;51.354;7.458;2023-05-07T07:01:10;19.80;99.90
11704;DHT22;5908;51.354;7.458;2023-05-07T07:03:37;19.80;99.90
11704;DHT22;5908;51.354;7.458;2023-05-07T07:06:05;19.90;99.90
11704;DHT22;5908;51.354;7.458;2023-05-07T07:08:32;20.10;99.90
11704;DHT22;5908;51.354;7.458;2023-05-07T07:10:59;20.10;99.90
11704;DHT22;5908;51.354;7.458;2023-05-07T07:13:26;20.20;99.90
11704;DHT22;5908;51.354;7.458;2023-05-07T07:15:53;20.20;99.90
11704;DHT22;5908;51.354;7.458;2023-05-07T07:18:20;20.40;99.90
11704;DHT22;5908;51.354;7.458;2023-05-07T07:20:46;20.50;99.90
11704;DHT22;5908;51.354;7.458;2023-05-07T07:23:14;20.40;99.90
11704;DHT22;5908;51.354;7.458;2023-05-07T07:25:41;20.50;99.90
11704;DHT22;5908;51.354;7.458;2023-05-07T07:28:08;20.60;99.90
11704;DHT22;5908;51.354;7.458;2023-05-07T07:30:36;20.90;99.90
11704;DHT22;5908;51.354;7.458;2023-05-07T07:33:03;21.00;99.90
11704;DHT22;5908;51.354;7.458;2023-05-07T07:35:30;20.90;99.90
11704;DHT22;5908;51.354;7.458;2023-05-07T07:37:57;21.10;99.90
11704;DHT22;5908;51.354;7.458;2023-05-07T07:40:25;21.10;99.90
11704;DHT22;5908;51.354;7.458;2023-05-07T07:42:52;21.10;99.00
11704;DHT22;5908;51.354;7.458;2023-05-07T07:45:20;21.10;99.00
11704;DHT22;5908;51.354;7.458;2023-05-07T07:47:46;21.10;98.20
11704;DHT22;5908;51.354;7.458;2023-05-07T07:50:13;21.00;98.40
11704;DHT22;5908;51.354;7.458;2023-05-07T07:52:40;21.10;98.30
11704;DHT22;5908;51.354;7.458;2023-05-07T07:55:08;21.10;98.20
11704;DHT22;5908;51.354;7.458;2023-05-07T07:57:36;21.20;98.40
11704;DHT22;5908;51.354;7.458;2023-05-07T08:00:03;21.30;98.00
11704;DHT22;5908;51.354;7.458;2023-05-07T08:02:32;21.40;97.80
11704;DHT22;5908;51.354;7.458;2023-05-07T08:04:59;21.60;97.70
11704;DHT22;5908;51.354;7.458;2023-05-07T08:07:25;21.70;97.80
11704;DHT22;5908;51.354;7.458;2023-05-07T08:09:52;22.00;97.10
11704;DHT22;5908;51.354;7.458;2023-05-07T08:12:19;22.10;96.10
11704;DHT22;5908;51.354;7.458;2023-05-07T08:14:47;22.10;95.70
11704;DHT22;5908;51.354;7.458;2023-05-07T08:17:14;22.10;96.50
11704;DHT22;5908;51.354;7.458;2023-05-07T08:19:41;22.00;96.60
11704;DHT22;5908;51.354;7.458;2023-05-07T08:22:08;22.00;96.70
11704;DHT22;5908;51.354;7.458;2023-05-07T08:24:35;22.10;96.80
11704;DHT22;5908;51.354;7.458;2023-05-07T08:27:01;22.20;97.50
11704;DHT22;5908;51.354;7.458;2023-05-07T08:29:28;22.30;96.90
11704;DHT22;5908;51.354;7.458;2023-05-07T08:31:56;22.40;96.40
11704;DHT22;5908;51.354;7.458;2023-05-07T08:34:23;22.30;96.00
11704;DHT22;5908;51.354;7.458;2023-05-07T08:36:49;22.30;96.40
11704;DHT22;5908;51.354;7.458;2023-05-07T08:39:16;22.20;97.30
11704;DHT22;5908;51.354;7.458;2023-05-07T08:41:44;22.20;97.00
11704;DHT22;5908;51.354;7.458;2023-05-07T08:44:13;22.30;97.20
11704;DHT22;5908;51.354;7.458;2023-05-07T08:46:41;22.20;97.50
11704;DHT22;5908;51.354;7.458;2023-05-07T08:49:10;22.20;97.40
11704;DHT22;5908;51.354;7.458;2023-05-07T08:51:37;22.30;97.70
11704;DHT22;5908;51.354;7.458;2023-05-07T08:54:04;22.20;97.60
11704;DHT22;5908;51.354;7.458;2023-05-07T08:56:32;22.40;97.10
11704;DHT22;5908;51.354;7.458;2023-05-07T08:58:59;22.40;97.30
11704;DHT22;5908;51.354;7.458;2023-05-07T09:01:26;22.60;96.30
11704;DHT22;5908;51.354;7.458;2023-05-07T09:03:53;22.80;95.90
11704;DHT22;5908;51.354;7.458;2023-05-07T09:06:21;22.80;95.50
11704;DHT22;5908;51.354;7.458;2023-05-07T09:08:52;23.10;95.00
11704;DHT22;5908;51.354;7.458;2023-05-07T09:11:23;23.30;95.00
11704;DHT22;5908;51.354;7.458;2023-05-07T09:13:53;23.40;94.60
11704;DHT22;5908;51.354;7.458;2023-05-07T09:16:21;23.60;93.30
11704;DHT22;5908;51.354;7.458;2023-05-07T09:18:51;23.50;93.70
11704;DHT22;5908;51.354;7.458;2023-05-07T09:21:18;23.80;92.70
11704;DHT22;5908;51.354;7.458;2023-05-07T09:23:47;24.10;91.70
11704;DHT22;5908;51.354;7.458;2023-05-07T09:26:14;24.30;90.50
11704;DHT22;5908;51.354;7.458;2023-05-07T09:28:42;24.50;88.70
11704;DHT22;5908;51.354;7.458;2023-05-07T09:31:09;24.60;88.20
11704;DHT22;5908;51.354;7.458;2023-05-07T09:33:36;24.60;88.40
11704;DHT22;5908;51.354;7.458;2023-05-07T09:36:03;24.80;86.20
11704;DHT22;5908;51.354;7.458;2023-05-07T09:38:31;24.50;87.80
11704;DHT22;5908;51.354;7.458;2023-05-07T09:41:06;24.20;89.20
11704;DHT22;5908;51.354;7.458;2023-05-07T09:43:34;23.90;89.40
11704;DHT22;5908;51.354;7.458;2023-05-07T09:46:03;23.50;87.60
11704;DHT22;5908;51.354;7.458;2023-05-07T09:48:32;23.30;87.00
11704;DHT22;5908;51.354;7.458;2023-05-07T09:51:03;23.20;88.40
11704;DHT22;5908;51.354;7.458;2023-05-07T09:53:33;23.10;89.00
11704;DHT22;5908;51.354;7.458;2023-05-07T09:56:01;23.20;87.10
11704;DHT22;5908;51.354;7.458;2023-05-07T09:58:30;23.40;87.00
11704;DHT22;5908;51.354;7.458;2023-05-07T10:00:58;23.70;86.40
11704;DHT22;5908;51.354;7.458;2023-05-07T10:03:26;24.00;84.30
11704;DHT22;5908;51.354;7.458;2023-05-07T10:05:54;24.10;83.30
11704;DHT22;5908;51.354;7.458;2023-05-07T10:08:21;24.20;82.00
11704;DHT22;5908;51.354;7.458;2023-05-07T10:10:49;24.20;82.80
11704;DHT22;5908;51.354;7.458;2023-05-07T10:13:17;24.30;82.90
11704;DHT22;5908;51.354;7.458;2023-05-07T10:15:46;24.40;82.80
11704;DHT22;5908;51.354;7.458;2023-05-07T10:18:14;24.50;82.20
11704;DHT22;5908;51.354;7.458;2023-05-07T10:20:43;24.70;82.50
11704;DHT22;5908;51.354;7.458;2023-05-07T10:23:15;24.80;83.10
11704;DHT22;5908;51.354;7.458;2023-05-07T10:25:43;25.10;80.70
11704;DHT22;5908;51.354;7.458;2023-05-07T10:28:11;25.10;80.70
11704;DHT22;5908;51.354;7.458;2023-05-07T10:30:48;25.10;81.40
11704;DHT22;5908;51.354;7.458;2023-05-07T10:33:22;25.20;82.10
11704;DHT22;5908;51.354;7.458;2023-05-07T10:35:50;25.20;81.40
11704;DHT22;5908;51.354;7.458;2023-05-07T10:38:17;25.20;81.50
11704;DHT22;5908;51.354;7.458;2023-05-07T10:40:44;25.40;80.30
11704;DHT22;5908;51.354;7.458;2023-05-07T10:43:11;25.60;80.20
11704;DHT22;5908;51.354;7.458;2023-05-07T10:45:38;25.60;80.70
11704;DHT22;5908;51.354;7.458;2023-05-07T10:48:11;25.70;79.80
11704;DHT22;5908;51.354;7.458;2023-05-07T10:50:39;25.80;79.80
11704;DHT22;5908;51.354;7.458;2023-05-07T10:53:25;26.00;78.40
11704;DHT22;5908;51.354;7.458;2023-05-07T10:56:25;25.80;77.70
11704;DHT22;5908;51.354;7.458;2023-05-07T10:58:59;25.40;79.00
11704;DHT22;5908;51.354;7.458;2023-05-07T11:01:52;25.20;80.00
11704;DHT22;5908;51.354;7.458;2023-05-07T11:04:20;25.30;80.80
11704;DHT22;5908;51.354;7.458;2023-05-07T11:07:26;25.50;80.20
11704;DHT22;5908;51.354;7.458;2023-05-07T11:09:58;25.60;80.70
11704;DHT22;5908;51.354;7.458;2023-05-07T11:12:54;25.70;80.20
11704;DHT22;5908;51.354;7.458;2023-05-07T11:15:39;25.90;81.30
11704;DHT22;5908;51.354;7.458;2023-05-07T11:18:07;26.00;81.20
11704;DHT22;5908;51.354;7.458;2023-05-07T11:20:47;26.00;81.80
11704;DHT22;5908;51.354;7.458;2023-05-07T11:26:29;25.70;82.40
11704;DHT22;5908;51.354;7.458;2023-05-07T11:28:57;25.40;83.20
11704;DHT22;5908;51.354;7.458;2023-05-07T11:31:27;25.10;84.30
11704;DHT22;5908;51.354;7.458;2023-05-07T11:33:55;24.80;86.20
11704;DHT22;5908;51.354;7.458;2023-05-07T11:36:24;24.60;86.90
11704;DHT22;5908;51.354;7.458;2023-05-07T11:38:51;24.50;87.90
11704;DHT22;5908;51.354;7.458;2023-05-07T11:41:18;24.20;88.00
11704;DHT22;5908;51.354;7.458;2023-05-07T11:43:55;24.20;88.60
11704;DHT22;5908;51.354;7.458;2023-05-07T11:46:22;24.20;88.90
11704;DHT22;5908;51.354;7.458;2023-05-07T11:48:49;24.40;88.90
11704;DHT22;5908;51.354;7.458;2023-05-07T11:51:24;24.90;87.30
11704;DHT22;5908;51.354;7.458;2023-05-07T11:53:52;25.40;85.60
11704;DHT22;5908;51.354;7.458;2023-05-07T11:56:19;25.70;84.10
11704;DHT22;5908;51.354;7.458;2023-05-07T11:58:47;25.60;83.60
11704;DHT22;5908;51.354;7.458;2023-05-07T12:01:15;25.70;83.90
11704;DHT22;5908;51.354;7.458;2023-05-07T12:03:44;25.90;83.30
11704;DHT22;5908;51.354;7.458;2023-05-07T12:06:12;26.00;82.10
11704;DHT22;5908;51.354;7.458;2023-05-07T12:08:41;25.70;82.80
11704;DHT22;5908;51.354;7.458;2023-05-07T12:11:09;25.30;83.60
11704;DHT22;5908;51.354;7.458;2023-05-07T12:13:37;25.10;84.70
11704;DHT22;5908;51.354;7.458;2023-05-07T12:16:05;24.90;85.10
11704;DHT22;5908;51.354;7.458;2023-05-07T12:18:33;24.70;85.40
11704;DHT22;5908;51.354;7.458;2023-05-07T12:21:01;24.60;86.40
11704;DHT22;5908;51.354;7.458;2023-05-07T12:23:28;24.40;86.50
11704;DHT22;5908;51.354;7.458;2023-05-07T12:25:57;24.20;87.70
11704;DHT22;5908;51.354;7.458;2023-05-07T12:28:23;23.90;89.20
11704;DHT22;5908;51.354;7.458;2023-05-07T12:30:51;23.50;90.60
11704;DHT22;5908;51.354;7.458;2023-05-07T12:33:26;23.20;91.40
11704;DHT22;5908;51.354;7.458;2023-05-07T12:35:54;23.00;91.90
11704;DHT22;5908;51.354;7.458;2023-05-07T12:38:22;22.80;92.40
11704;DHT22;5908;51.354;7.458;2023-05-07T12:40:50;22.70;92.60
11704;DHT22;5908;51.354;7.458;2023-05-07T12:43:20;22.70;92.70
11704;DHT22;5908;51.354;7.458;2023-05-07T12:45:48;22.70;92.70
11704;DHT22;5908;51.354;7.458;2023-05-07T12:48:15;22.60;92.80
11704;DHT22;5908;51.354;7.458;2023-05-07T12:50:43;22.70;92.50
11704;DHT22;5908;51.354;7.458;2023-05-07T12:53:11;22.60;92.60
11704;DHT22;5908;51.354;7.458;2023-05-07T12:55:43;22.70;92.60
11704;DHT22;5908;51.354;7.458;2023-05-07T12:58:15;22.70;92.70
11704;DHT22;5908;51.354;7.458;2023-05-07T13:00:45;22.70;92.70
11704;DHT22;5908;51.354;7.458;2023-05-07T13:03:21;22.70;93.20
11704;DHT22;5908;51.354;7.458;2023-05-07T13:05:49;22.70;93.40
11704;DHT22;5908;51.354;7.458;2023-05-07T13:08:24;22.60;93.90
11704;DHT22;5908;51.354;7.458;2023-05-07T13:10:51;22.60;93.90
11704;DHT22;5908;51.354;7.458;2023-05-07T13:13:18;22.60;94.30
11704;DHT22;5908;51.354;7.458;2023-05-07T13:15:46;22.60;96.30
11704;DHT22;5908;51.354;7.458;2023-05-07T13:18:13;21.70;99.90
11704;DHT22;5908;51.354;7.458;2023-05-07T13:20:40;20.70;99.90
11704;DHT22;5908;51.354;7.458;2023-05-07T13:23:07;20.50;99.90
11704;DHT22;5908;51.354;7.458;2023-05-07T13:25:33;20.40;99.90
11704;DHT22;5908;51.354;7.458;2023-05-07T13:28:00;20.30;99.90
11704;DHT22;5908;51.354;7.458;2023-05-07T13:30:28;20.30;99.90
11704;DHT22;5908;51.354;7.458;2023-05-07T13:32:56;20.50;99.90
11704;DHT22;5908;51.354;7.458;2023-05-07T13:35:23;20.60;99.90
11704;DHT22;5908;51.354;7.458;2023-05-07T13:37:50;20.50;99.90
11704;DHT22;5908;51.354;7.458;2023-05-07T13:40:17;20.50;99.90
11704;DHT22;5908;51.354;7.458;2023-05-07T13:42:44;20.10;99.90
11704;DHT22;5908;51.354;7.458;2023-05-07T13:45:11;19.90;99.90
11704;DHT22;5908;51.354;7.458;2023-05-07T13:47:39;19.70;99.90
11704;DHT22;5908;51.354;7.458;2023-05-07T13:50:09;19.60;99.90
11704;DHT22;5908;51.354;7.458;2023-05-07T13:52:36;19.60;99.90
11704;DHT22;5908;51.354;7.458;2023-05-07T13:55:04;19.70;99.90
11704;DHT22;5908;51.354;7.458;2023-05-07T13:57:31;19.80;99.90
11704;DHT22;5908;51.354;7.458;2023-05-07T13:59:57;19.40;99.90
11704;DHT22;5908;51.354;7.458;2023-05-07T14:02:24;19.10;99.90
11704;DHT22;5908;51.354;7.458;2023-05-07T14:04:51;18.80;99.90
11704;DHT22;5908;51.354;7.458;2023-05-07T14:07:19;18.90;99.90
11704;DHT22;5908;51.354;7.458;2023-05-07T14:09:46;18.90;99.90
11704;DHT22;5908;51.354;7.458;2023-05-07T14:12:12;18.90;99.90
11704;DHT22;5908;51.354;7.458;2023-05-07T14:14:39;18.80;99.90
11704;DHT22;5908;51.354;7.458;2023-05-07T14:17:06;18.80;99.90
11704;DHT22;5908;51.354;7.458;2023-05-07T14:19:33;18.70;99.90
11704;DHT22;5908;51.354;7.458;2023-05-07T14:22:00;18.60;99.90
11704;DHT22;5908;51.354;7.458;2023-05-07T14:24:29;18.70;99.90
11704;DHT22;5908;51.354;7.458;2023-05-07T14:26:55;18.80;99.90
11704;DHT22;5908;51.354;7.458;2023-05-07T14:29:22;18.90;99.90
11704;DHT22;5908;51.354;7.458;2023-05-07T14:31:49;19.00;99.90
11704;DHT22;5908;51.354;7.458;2023-05-07T14:34:16;19.10;99.90
11704;DHT22;5908;51.354;7.458;2023-05-07T14:36:43;19.20;99.90
11704;DHT22;5908;51.354;7.458;2023-05-07T14:39:10;19.10;99.90
11704;DHT22;5908;51.354;7.458;2023-05-07T14:41:37;19.10;99.90
11704;DHT22;5908;51.354;7.458;2023-05-07T14:44:04;19.00;99.90
11704;DHT22;5908;51.354;7.458;2023-05-07T14:46:31;19.00;99.90
11704;DHT22;5908;51.354;7.458;2023-05-07T14:48:57;18.90;99.90
11704;DHT22;5908;51.354;7.458;2023-05-07T14:51:24;18.90;99.90
11704;DHT22;5908;51.354;7.458;2023-05-07T14:53:53;18.80;99.90
11704;DHT22;5908;51.354;7.458;2023-05-07T14:56:20;18.80;99.90
11704;DHT22;5908;51.354;7.458;2023-05-07T14:58:48;18.80;99.90
11704;DHT22;5908;51.354;7.458;2023-05-07T15:01:15;18.80;99.90
11704;DHT22;5908;51.354;7.458;2023-05-07T15:03:42;18.80;99.90
11704;DHT22;5908;51.354;7.458;2023-05-07T15:06:08;18.90;99.90
11704;DHT22;5908;51.354;7.458;2023-05-07T15:08:35;18.90;99.90
11704;DHT22;5908;51.354;7.458;2023-05-07T15:11:02;18.80;99.90
11704;DHT22;5908;51.354;7.458;2023-05-07T15:13:29;18.80;99.90
11704;DHT22;5908;51.354;7.458;2023-05-07T15:15:57;18.80;99.90
11704;DHT22;5908;51.354;7.458;2023-05-07T15:18:27;18.80;99.90
11704;DHT22;5908;51.354;7.458;2023-05-07T15:20:55;18.70;99.90
11704;DHT22;5908;51.354;7.458;2023-05-07T15:23:22;18.80;99.90
11704;DHT22;5908;51.354;7.458;2023-05-07T15:25:48;18.80;99.90
11704;DHT22;5908;51.354;7.458;2023-05-07T15:28:15;18.80;99.90
11704;DHT22;5908;51.354;7.458;2023-05-07T15:30:42;18.80;99.90
11704;DHT22;5908;51.354;7.458;2023-05-07T15:33:10;18.90;99.90
11704;DHT22;5908;51.354;7.458;2023-05-07T15:35:37;18.90;99.90
11704;DHT22;5908;51.354;7.458;2023-05-07T15:38:04;18.90;99.90
11704;DHT22;5908;51.354;7.458;2023-05-07T15:40:31;18.80;99.90
11704;DHT22;5908;51.354;7.458;2023-05-07T15:43:00;18.80;99.90
11704;DHT22;5908;51.354;7.458;2023-05-07T15:45:28;18.80;99.90
11704;DHT22;5908;51.354;7.458;2023-05-07T15:47:55;18.80;99.90
11704;DHT22;5908;51.354;7.458;2023-05-07T15:50:23;18.70;99.90
11704;DHT22;5908;51.354;7.458;2023-05-07T15:52:50;18.80;99.90
11704;DHT22;5908;51.354;7.458;2023-05-07T15:55:17;18.80;99.90
11704;DHT22;5908;51.354;7.458;2023-05-07T15:57:43;18.80;99.90
11704;DHT22;5908;51.354;7.458;2023-05-07T16:00:11;18.80;99.90